sensor_id;sensor_type;location;lat;lon;timestamp;P1;durP1;ratioP1;P2;durP2;ratioP2
52368;SDS011;38298;50.346;3.526;2024-03-08T00:02:07;30.35;;;13.52;;
52368;SDS011;38298;50.346;3.526;2024-03-08T00:04:33;29.02;;;13.05;;
52368;SDS011;38298;50.346;3.526;2024-03-08T00:06:59;31.00;;;13.88;;
52368;SDS011;38298;50.346;3.526;2024-03-08T00:09:26;34.47;;;13.85;;
52368;SDS011;38298;50.346;3.526;2024-03-08T00:11:52;29.80;;;13.85;;
52368;SDS011;38298;50.346;3.526;2024-03-08T00:14:18;32.63;;;14.07;;
52368;SDS011;38298;50.346;3.526;2024-03-08T00:16:45;31.60;;;14.05;;
52368;SDS011;38298;50.346;3.526;2024-03-08T00:19:11;33.33;;;13.40;;
52368;SDS011;38298;50.346;3.526;2024-03-08T00:21:37;31.42;;;14.32;;
52368;SDS011;38298;50.346;3.526;2024-03-08T00:24:03;28.20;;;13.80;;
52368;SDS011;38298;50.346;3.526;2024-03-08T00:26:29;30.80;;;13.55;;
52368;SDS011;38298;50.346;3.526;2024-03-08T00:28:55;30.25;;;12.75;;
52368;SDS011;38298;50.346;3.526;2024-03-08T00:31:21;28.73;;;14.02;;
52368;SDS011;38298;50.346;3.526;2024-03-08T00:33:47;30.85;;;13.18;;
52368;SDS011;38298;50.346;3.526;2024-03-08T00:36:13;27.13;;;13.15;;
52368;SDS011;38298;50.346;3.526;2024-03-08T00:38:39;27.55;;;13.27;;
52368;SDS011;38298;50.346;3.526;2024-03-08T00:41:05;31.02;;;13.52;;
52368;SDS011;38298;50.346;3.526;2024-03-08T00:43:32;29.65;;;13.18;;
52368;SDS011;38298;50.346;3.526;2024-03-08T00:45:59;26.40;;;12.82;;
52368;SDS011;38298;50.346;3.526;2024-03-08T00:48:26;29.15;;;12.45;;
52368;SDS011;38298;50.346;3.526;2024-03-08T00:50:52;29.92;;;13.15;;
52368;SDS011;38298;50.346;3.526;2024-03-08T00:53:18;28.45;;;12.88;;
52368;SDS011;38298;50.346;3.526;2024-03-08T00:55:44;28.05;;;12.95;;
52368;SDS011;38298;50.346;3.526;2024-03-08T00:58:11;29.55;;;13.70;;
52368;SDS011;38298;50.346;3.526;2024-03-08T01:00:37;28.30;;;13.48;;
52368;SDS011;38298;50.346;3.526;2024-03-08T01:03:04;24.45;;;12.43;;
52368;SDS011;38298;50.346;3.526;2024-03-08T01:05:30;29.63;;;12.95;;
52368;SDS011;38298;50.346;3.526;2024-03-08T01:07:56;31.08;;;13.20;;
52368;SDS011;38298;50.346;3.526;2024-03-08T01:10:22;26.40;;;12.82;;
52368;SDS011;38298;50.346;3.526;2024-03-08T01:12:48;27.48;;;12.40;;
52368;SDS011;38298;50.346;3.526;2024-03-08T01:15:15;25.63;;;12.88;;
52368;SDS011;38298;50.346;3.526;2024-03-08T01:17:41;28.20;;;12.05;;
52368;SDS011;38298;50.346;3.526;2024-03-08T01:20:09;26.33;;;12.18;;
52368;SDS011;38298;50.346;3.526;2024-03-08T01:22:37;28.02;;;12.43;;
52368;SDS011;38298;50.346;3.526;2024-03-08T01:25:03;31.17;;;12.85;;
52368;SDS011;38298;50.346;3.526;2024-03-08T01:27:30;26.33;;;12.63;;
52368;SDS011;38298;50.346;3.526;2024-03-08T01:29:56;29.95;;;13.20;;
52368;SDS011;38298;50.346;3.526;2024-03-08T01:32:24;27.73;;;12.15;;
52368;SDS011;38298;50.346;3.526;2024-03-08T01:34:50;25.98;;;12.05;;
52368;SDS011;38298;50.346;3.526;2024-03-08T01:37:16;26.08;;;12.18;;
52368;SDS011;38298;50.346;3.526;2024-03-08T01:39:42;27.05;;;12.13;;
52368;SDS011;38298;50.346;3.526;2024-03-08T01:42:08;23.83;;;11.30;;
52368;SDS011;38298;50.346;3.526;2024-03-08T01:44:36;28.00;;;12.57;;
52368;SDS011;38298;50.346;3.526;2024-03-08T01:47:02;24.88;;;12.23;;
52368;SDS011;38298;50.346;3.526;2024-03-08T01:49:28;23.88;;;11.93;;
52368;SDS011;38298;50.346;3.526;2024-03-08T01:51:55;27.20;;;12.82;;
52368;SDS011;38298;50.346;3.526;2024-03-08T01:54:24;29.02;;;12.13;;
52368;SDS011;38298;50.346;3.526;2024-03-08T01:56:50;25.95;;;12.60;;
52368;SDS011;38298;50.346;3.526;2024-03-08T01:59:18;23.77;;;11.77;;
52368;SDS011;38298;50.346;3.526;2024-03-08T02:01:44;27.45;;;12.68;;
52368;SDS011;38298;50.346;3.526;2024-03-08T02:04:10;25.20;;;12.00;;
52368;SDS011;38298;50.346;3.526;2024-03-08T02:06:36;24.80;;;11.55;;
52368;SDS011;38298;50.346;3.526;2024-03-08T02:09:03;26.00;;;11.93;;
52368;SDS011;38298;50.346;3.526;2024-03-08T02:11:33;27.52;;;11.38;;
52368;SDS011;38298;50.346;3.526;2024-03-08T02:14:01;28.08;;;12.38;;
52368;SDS011;38298;50.346;3.526;2024-03-08T02:16:27;26.67;;;12.65;;
52368;SDS011;38298;50.346;3.526;2024-03-08T02:18:53;25.17;;;11.52;;
52368;SDS011;38298;50.346;3.526;2024-03-08T02:21:19;24.85;;;11.57;;
52368;SDS011;38298;50.346;3.526;2024-03-08T02:23:45;31.10;;;13.57;;
52368;SDS011;38298;50.346;3.526;2024-03-08T02:26:11;28.55;;;12.25;;
52368;SDS011;38298;50.346;3.526;2024-03-08T02:28:37;28.88;;;12.23;;
52368;SDS011;38298;50.346;3.526;2024-03-08T02:31:03;25.15;;;11.20;;
52368;SDS011;38298;50.346;3.526;2024-03-08T02:33:33;28.25;;;13.00;;
52368;SDS011;38298;50.346;3.526;2024-03-08T02:35:59;26.20;;;12.20;;
52368;SDS011;38298;50.346;3.526;2024-03-08T02:38:25;25.25;;;12.10;;
52368;SDS011;38298;50.346;3.526;2024-03-08T02:40:51;26.92;;;12.48;;
52368;SDS011;38298;50.346;3.526;2024-03-08T02:43:18;26.15;;;12.57;;
52368;SDS011;38298;50.346;3.526;2024-03-08T02:45:44;23.88;;;11.35;;
52368;SDS011;38298;50.346;3.526;2024-03-08T02:48:11;28.58;;;12.60;;
52368;SDS011;38298;50.346;3.526;2024-03-08T02:50:37;30.05;;;12.30;;
52368;SDS011;38298;50.346;3.526;2024-03-08T02:53:05;28.05;;;12.63;;
52368;SDS011;38298;50.346;3.526;2024-03-08T02:55:32;27.92;;;12.43;;
52368;SDS011;38298;50.346;3.526;2024-03-08T02:58:01;29.55;;;12.80;;
52368;SDS011;38298;50.346;3.526;2024-03-08T03:00:28;27.42;;;12.75;;
52368;SDS011;38298;50.346;3.526;2024-03-08T03:02:55;28.10;;;12.48;;
52368;SDS011;38298;50.346;3.526;2024-03-08T03:05:22;27.08;;;11.65;;
52368;SDS011;38298;50.346;3.526;2024-03-08T03:07:48;24.23;;;12.80;;
52368;SDS011;38298;50.346;3.526;2024-03-08T03:10:18;26.75;;;12.05;;
52368;SDS011;38298;50.346;3.526;2024-03-08T03:12:44;29.35;;;12.98;;
52368;SDS011;38298;50.346;3.526;2024-03-08T03:15:11;34.42;;;14.13;;
52368;SDS011;38298;50.346;3.526;2024-03-08T03:17:37;28.00;;;13.15;;
52368;SDS011;38298;50.346;3.526;2024-03-08T03:20:06;31.17;;;12.85;;
52368;SDS011;38298;50.346;3.526;2024-03-08T03:22:38;33.00;;;13.43;;
52368;SDS011;38298;50.346;3.526;2024-03-08T03:25:04;31.65;;;12.07;;
52368;SDS011;38298;50.346;3.526;2024-03-08T03:27:31;31.38;;;14.35;;
52368;SDS011;38298;50.346;3.526;2024-03-08T03:29:57;27.45;;;12.50;;
52368;SDS011;38298;50.346;3.526;2024-03-08T03:32:23;30.63;;;13.10;;
52368;SDS011;38298;50.346;3.526;2024-03-08T03:34:49;28.08;;;12.75;;
52368;SDS011;38298;50.346;3.526;2024-03-08T03:37:19;26.92;;;12.00;;
52368;SDS011;38298;50.346;3.526;2024-03-08T03:39:45;27.58;;;12.45;;
52368;SDS011;38298;50.346;3.526;2024-03-08T03:42:16;29.55;;;13.02;;
52368;SDS011;38298;50.346;3.526;2024-03-08T03:44:46;33.47;;;13.77;;
52368;SDS011;38298;50.346;3.526;2024-03-08T03:47:12;29.80;;;13.45;;
52368;SDS011;38298;50.346;3.526;2024-03-08T03:49:38;33.03;;;12.63;;
52368;SDS011;38298;50.346;3.526;2024-03-08T03:52:05;28.23;;;12.57;;
52368;SDS011;38298;50.346;3.526;2024-03-08T03:54:31;30.88;;;14.00;;
52368;SDS011;38298;50.346;3.526;2024-03-08T03:56:58;32.25;;;13.88;;
52368;SDS011;38298;50.346;3.526;2024-03-08T03:59:25;29.95;;;13.23;;
52368;SDS011;38298;50.346;3.526;2024-03-08T04:01:52;28.95;;;13.15;;
52368;SDS011;38298;50.346;3.526;2024-03-08T04:04:18;26.85;;;12.55;;
52368;SDS011;38298;50.346;3.526;2024-03-08T04:06:44;36.20;;;14.52;;
52368;SDS011;38298;50.346;3.526;2024-03-08T04:09:10;33.60;;;14.32;;
52368;SDS011;38298;50.346;3.526;2024-03-08T04:11:37;28.67;;;13.05;;
52368;SDS011;38298;50.346;3.526;2024-03-08T04:14:03;34.00;;;13.73;;
52368;SDS011;38298;50.346;3.526;2024-03-08T04:16:30;29.35;;;12.73;;
52368;SDS011;38298;50.346;3.526;2024-03-08T04:18:56;32.92;;;13.70;;
52368;SDS011;38298;50.346;3.526;2024-03-08T04:21:22;27.10;;;12.18;;
52368;SDS011;38298;50.346;3.526;2024-03-08T04:23:48;27.83;;;12.95;;
52368;SDS011;38298;50.346;3.526;2024-03-08T04:26:14;35.05;;;13.70;;
52368;SDS011;38298;50.346;3.526;2024-03-08T04:28:40;27.50;;;12.80;;
52368;SDS011;38298;50.346;3.526;2024-03-08T04:31:06;32.05;;;13.60;;
52368;SDS011;38298;50.346;3.526;2024-03-08T04:33:32;32.75;;;14.15;;
52368;SDS011;38298;50.346;3.526;2024-03-08T04:36:00;34.78;;;13.88;;
52368;SDS011;38298;50.346;3.526;2024-03-08T04:38:29;30.13;;;13.40;;
52368;SDS011;38298;50.346;3.526;2024-03-08T04:40:55;30.70;;;13.35;;
52368;SDS011;38298;50.346;3.526;2024-03-08T04:43:22;32.75;;;13.60;;
52368;SDS011;38298;50.346;3.526;2024-03-08T04:45:50;29.92;;;13.13;;
52368;SDS011;38298;50.346;3.526;2024-03-08T04:48:16;32.17;;;13.98;;
52368;SDS011;38298;50.346;3.526;2024-03-08T04:50:42;30.63;;;13.48;;
52368;SDS011;38298;50.346;3.526;2024-03-08T04:53:09;32.03;;;13.20;;
52368;SDS011;38298;50.346;3.526;2024-03-08T04:55:35;31.52;;;14.38;;
52368;SDS011;38298;50.346;3.526;2024-03-08T04:58:02;33.33;;;13.50;;
52368;SDS011;38298;50.346;3.526;2024-03-08T05:00:30;33.65;;;13.25;;
52368;SDS011;38298;50.346;3.526;2024-03-08T05:02:57;31.80;;;13.95;;
52368;SDS011;38298;50.346;3.526;2024-03-08T05:05:23;36.42;;;12.20;;
52368;SDS011;38298;50.346;3.526;2024-03-08T05:07:49;40.72;;;14.10;;
52368;SDS011;38298;50.346;3.526;2024-03-08T05:10:15;26.67;;;12.55;;
52368;SDS011;38298;50.346;3.526;2024-03-08T05:12:42;33.00;;;12.85;;
52368;SDS011;38298;50.346;3.526;2024-03-08T05:15:08;32.88;;;12.23;;
52368;SDS011;38298;50.346;3.526;2024-03-08T05:17:34;31.48;;;13.25;;
52368;SDS011;38298;50.346;3.526;2024-03-08T05:20:00;34.13;;;14.05;;
52368;SDS011;38298;50.346;3.526;2024-03-08T05:22:26;34.42;;;13.15;;
52368;SDS011;38298;50.346;3.526;2024-03-08T05:24:52;56.25;;;18.35;;
52368;SDS011;38298;50.346;3.526;2024-03-08T05:27:18;43.15;;;16.73;;
52368;SDS011;38298;50.346;3.526;2024-03-08T05:29:44;31.13;;;13.13;;
52368;SDS011;38298;50.346;3.526;2024-03-08T05:32:11;29.58;;;12.73;;
52368;SDS011;38298;50.346;3.526;2024-03-08T05:34:37;36.45;;;13.48;;
52368;SDS011;38298;50.346;3.526;2024-03-08T05:37:03;32.38;;;12.82;;
52368;SDS011;38298;50.346;3.526;2024-03-08T05:39:30;31.75;;;13.48;;
52368;SDS011;38298;50.346;3.526;2024-03-08T05:41:56;33.72;;;13.57;;
52368;SDS011;38298;50.346;3.526;2024-03-08T05:44:22;32.63;;;12.57;;
52368;SDS011;38298;50.346;3.526;2024-03-08T05:46:48;32.22;;;12.85;;
52368;SDS011;38298;50.346;3.526;2024-03-08T05:49:15;31.77;;;12.88;;
52368;SDS011;38298;50.346;3.526;2024-03-08T05:51:41;31.42;;;12.93;;
52368;SDS011;38298;50.346;3.526;2024-03-08T05:54:09;35.85;;;13.43;;
52368;SDS011;38298;50.346;3.526;2024-03-08T05:56:36;31.13;;;12.93;;
52368;SDS011;38298;50.346;3.526;2024-03-08T05:59:02;31.08;;;13.27;;
52368;SDS011;38298;50.346;3.526;2024-03-08T06:01:28;28.85;;;12.48;;
52368;SDS011;38298;50.346;3.526;2024-03-08T06:03:55;32.22;;;13.27;;
52368;SDS011;38298;50.346;3.526;2024-03-08T06:06:22;30.52;;;12.60;;
52368;SDS011;38298;50.346;3.526;2024-03-08T06:08:48;31.77;;;13.07;;
52368;SDS011;38298;50.346;3.526;2024-03-08T06:11:14;30.63;;;12.10;;
52368;SDS011;38298;50.346;3.526;2024-03-08T06:13:42;34.35;;;14.75;;
52368;SDS011;38298;50.346;3.526;2024-03-08T06:16:08;29.45;;;12.38;;
52368;SDS011;38298;50.346;3.526;2024-03-08T06:18:34;31.88;;;12.57;;
52368;SDS011;38298;50.346;3.526;2024-03-08T06:21:07;31.77;;;12.82;;
52368;SDS011;38298;50.346;3.526;2024-03-08T06:23:41;36.85;;;13.52;;
52368;SDS011;38298;50.346;3.526;2024-03-08T06:26:07;31.70;;;13.13;;
52368;SDS011;38298;50.346;3.526;2024-03-08T06:28:34;36.25;;;12.23;;
52368;SDS011;38298;50.346;3.526;2024-03-08T06:31:01;31.08;;;13.45;;
52368;SDS011;38298;50.346;3.526;2024-03-08T06:33:27;34.47;;;12.82;;
52368;SDS011;38298;50.346;3.526;2024-03-08T06:35:54;34.50;;;14.05;;
52368;SDS011;38298;50.346;3.526;2024-03-08T06:38:26;35.75;;;13.02;;
52368;SDS011;38298;50.346;3.526;2024-03-08T06:40:52;33.55;;;12.98;;
52368;SDS011;38298;50.346;3.526;2024-03-08T06:43:19;31.58;;;13.35;;
52368;SDS011;38298;50.346;3.526;2024-03-08T06:45:46;29.23;;;12.48;;
52368;SDS011;38298;50.346;3.526;2024-03-08T06:48:15;35.05;;;13.98;;
52368;SDS011;38298;50.346;3.526;2024-03-08T06:50:42;33.05;;;13.27;;
52368;SDS011;38298;50.346;3.526;2024-03-08T06:53:08;32.92;;;13.27;;
52368;SDS011;38298;50.346;3.526;2024-03-08T06:55:34;35.83;;;13.35;;
52368;SDS011;38298;50.346;3.526;2024-03-08T06:58:01;33.72;;;13.57;;
52368;SDS011;38298;50.346;3.526;2024-03-08T07:00:27;33.60;;;14.20;;
52368;SDS011;38298;50.346;3.526;2024-03-08T07:02:55;32.90;;;13.70;;
52368;SDS011;38298;50.346;3.526;2024-03-08T07:05:22;31.08;;;13.63;;
52368;SDS011;38298;50.346;3.526;2024-03-08T07:07:49;36.25;;;14.00;;
52368;SDS011;38298;50.346;3.526;2024-03-08T07:10:16;37.03;;;13.10;;
52368;SDS011;38298;50.346;3.526;2024-03-08T07:12:42;32.80;;;13.48;;
52368;SDS011;38298;50.346;3.526;2024-03-08T07:15:08;36.08;;;15.13;;
52368;SDS011;38298;50.346;3.526;2024-03-08T07:20:04;31.38;;;13.73;;
52368;SDS011;38298;50.346;3.526;2024-03-08T07:22:35;30.20;;;13.13;;
52368;SDS011;38298;50.346;3.526;2024-03-08T07:25:02;34.55;;;13.77;;
52368;SDS011;38298;50.346;3.526;2024-03-08T07:27:53;32.30;;;13.88;;
52368;SDS011;38298;50.346;3.526;2024-03-08T07:30:26;32.92;;;13.90;;
52368;SDS011;38298;50.346;3.526;2024-03-08T07:33:24;35.05;;;14.88;;
52368;SDS011;38298;50.346;3.526;2024-03-08T07:35:50;32.33;;;13.45;;
52368;SDS011;38298;50.346;3.526;2024-03-08T07:38:16;38.58;;;14.02;;
52368;SDS011;38298;50.346;3.526;2024-03-08T07:40:42;38.60;;;15.10;;
52368;SDS011;38298;50.346;3.526;2024-03-08T07:43:11;35.28;;;14.48;;
52368;SDS011;38298;50.346;3.526;2024-03-08T07:45:37;35.60;;;14.55;;
52368;SDS011;38298;50.346;3.526;2024-03-08T07:48:04;32.47;;;14.32;;
52368;SDS011;38298;50.346;3.526;2024-03-08T07:50:35;34.92;;;14.65;;
52368;SDS011;38298;50.346;3.526;2024-03-08T07:53:02;33.50;;;14.07;;
52368;SDS011;38298;50.346;3.526;2024-03-08T07:55:28;32.95;;;13.75;;
52368;SDS011;38298;50.346;3.526;2024-03-08T07:57:56;35.33;;;14.57;;
52368;SDS011;38298;50.346;3.526;2024-03-08T08:00:22;38.70;;;14.10;;
52368;SDS011;38298;50.346;3.526;2024-03-08T08:02:49;35.25;;;14.77;;
52368;SDS011;38298;50.346;3.526;2024-03-08T08:05:15;38.70;;;14.00;;
52368;SDS011;38298;50.346;3.526;2024-03-08T08:07:46;33.35;;;13.93;;
52368;SDS011;38298;50.346;3.526;2024-03-08T08:10:12;39.97;;;14.27;;
52368;SDS011;38298;50.346;3.526;2024-03-08T08:12:46;31.60;;;13.63;;
52368;SDS011;38298;50.346;3.526;2024-03-08T08:15:13;36.35;;;14.18;;
52368;SDS011;38298;50.346;3.526;2024-03-08T08:17:40;40.33;;;14.82;;
52368;SDS011;38298;50.346;3.526;2024-03-08T08:20:06;39.95;;;15.40;;
52368;SDS011;38298;50.346;3.526;2024-03-08T08:22:32;33.88;;;13.50;;
52368;SDS011;38298;50.346;3.526;2024-03-08T08:24:58;36.35;;;14.23;;
52368;SDS011;38298;50.346;3.526;2024-03-08T08:27:24;35.45;;;15.13;;
52368;SDS011;38298;50.346;3.526;2024-03-08T08:29:51;32.60;;;14.90;;
52368;SDS011;38298;50.346;3.526;2024-03-08T08:32:17;33.90;;;14.27;;
52368;SDS011;38298;50.346;3.526;2024-03-08T08:34:43;33.35;;;14.10;;
52368;SDS011;38298;50.346;3.526;2024-03-08T08:37:09;34.50;;;14.07;;
52368;SDS011;38298;50.346;3.526;2024-03-08T08:39:35;31.00;;;14.88;;
52368;SDS011;38298;50.346;3.526;2024-03-08T08:42:03;33.55;;;14.38;;
52368;SDS011;38298;50.346;3.526;2024-03-08T08:44:29;31.30;;;13.70;;
52368;SDS011;38298;50.346;3.526;2024-03-08T08:46:56;30.35;;;14.18;;
52368;SDS011;38298;50.346;3.526;2024-03-08T08:49:23;34.60;;;14.50;;
52368;SDS011;38298;50.346;3.526;2024-03-08T08:51:51;35.03;;;14.30;;
52368;SDS011;38298;50.346;3.526;2024-03-08T08:54:17;33.65;;;14.63;;
52368;SDS011;38298;50.346;3.526;2024-03-08T08:56:43;32.72;;;14.60;;
52368;SDS011;38298;50.346;3.526;2024-03-08T08:59:09;33.35;;;13.73;;
52368;SDS011;38298;50.346;3.526;2024-03-08T09:01:39;33.80;;;13.75;;
52368;SDS011;38298;50.346;3.526;2024-03-08T09:04:05;29.67;;;13.93;;
52368;SDS011;38298;50.346;3.526;2024-03-08T09:06:31;33.67;;;14.32;;
52368;SDS011;38298;50.346;3.526;2024-03-08T09:08:57;33.60;;;14.57;;
52368;SDS011;38298;50.346;3.526;2024-03-08T09:11:23;32.75;;;14.32;;
52368;SDS011;38298;50.346;3.526;2024-03-08T09:13:52;31.85;;;14.82;;
52368;SDS011;38298;50.346;3.526;2024-03-08T09:16:18;33.20;;;14.45;;
52368;SDS011;38298;50.346;3.526;2024-03-08T09:18:44;35.75;;;14.68;;
52368;SDS011;38298;50.346;3.526;2024-03-08T09:21:10;34.25;;;14.20;;
52368;SDS011;38298;50.346;3.526;2024-03-08T09:23:38;33.42;;;14.32;;
52368;SDS011;38298;50.346;3.526;2024-03-08T09:26:05;36.80;;;14.57;;
52368;SDS011;38298;50.346;3.526;2024-03-08T09:28:34;31.92;;;14.25;;
52368;SDS011;38298;50.346;3.526;2024-03-08T09:31:00;36.05;;;14.80;;
52368;SDS011;38298;50.346;3.526;2024-03-08T09:33:26;33.47;;;13.93;;
52368;SDS011;38298;50.346;3.526;2024-03-08T09:35:53;29.67;;;13.82;;
52368;SDS011;38298;50.346;3.526;2024-03-08T09:38:19;27.17;;;13.50;;
52368;SDS011;38298;50.346;3.526;2024-03-08T09:40:45;28.90;;;13.82;;
52368;SDS011;38298;50.346;3.526;2024-03-08T09:43:12;32.08;;;13.45;;
52368;SDS011;38298;50.346;3.526;2024-03-08T09:45:39;31.27;;;13.75;;
52368;SDS011;38298;50.346;3.526;2024-03-08T09:48:09;29.58;;;13.35;;
52368;SDS011;38298;50.346;3.526;2024-03-08T09:50:39;29.13;;;13.52;;
52368;SDS011;38298;50.346;3.526;2024-03-08T09:53:06;31.60;;;13.68;;
52368;SDS011;38298;50.346;3.526;2024-03-08T09:55:36;27.92;;;13.07;;
52368;SDS011;38298;50.346;3.526;2024-03-08T09:58:05;33.15;;;13.82;;
52368;SDS011;38298;50.346;3.526;2024-03-08T10:00:50;34.58;;;13.68;;
52368;SDS011;38298;50.346;3.526;2024-03-08T10:03:16;28.45;;;13.70;;
52368;SDS011;38298;50.346;3.526;2024-03-08T10:05:42;26.70;;;13.25;;
52368;SDS011;38298;50.346;3.526;2024-03-08T10:08:09;26.83;;;13.50;;
52368;SDS011;38298;50.346;3.526;2024-03-08T10:10:36;31.13;;;12.75;;
52368;SDS011;38298;50.346;3.526;2024-03-08T10:13:05;30.88;;;12.93;;
52368;SDS011;38298;50.346;3.526;2024-03-08T10:15:31;27.63;;;12.88;;
52368;SDS011;38298;50.346;3.526;2024-03-08T10:18:00;24.20;;;12.38;;
52368;SDS011;38298;50.346;3.526;2024-03-08T10:20:33;24.98;;;12.30;;
52368;SDS011;38298;50.346;3.526;2024-03-08T10:23:02;26.08;;;12.63;;
52368;SDS011;38298;50.346;3.526;2024-03-08T10:25:30;25.65;;;12.20;;
52368;SDS011;38298;50.346;3.526;2024-03-08T10:27:56;27.65;;;12.70;;
52368;SDS011;38298;50.346;3.526;2024-03-08T10:30:22;24.83;;;11.57;;
52368;SDS011;38298;50.346;3.526;2024-03-08T10:32:48;25.58;;;12.50;;
52368;SDS011;38298;50.346;3.526;2024-03-08T10:35:15;21.77;;;11.43;;
52368;SDS011;38298;50.346;3.526;2024-03-08T10:37:45;29.17;;;13.55;;
52368;SDS011;38298;50.346;3.526;2024-03-08T10:40:18;28.55;;;12.80;;
52368;SDS011;38298;50.346;3.526;2024-03-08T10:42:54;32.03;;;12.27;;
52368;SDS011;38298;50.346;3.526;2024-03-08T10:45:36;22.25;;;11.15;;
52368;SDS011;38298;50.346;3.526;2024-03-08T10:50:35;23.55;;;11.57;;
52368;SDS011;38298;50.346;3.526;2024-03-08T10:53:01;24.50;;;10.30;;
52368;SDS011;38298;50.346;3.526;2024-03-08T10:55:28;25.90;;;12.30;;
52368;SDS011;38298;50.346;3.526;2024-03-08T10:57:55;23.27;;;11.52;;
52368;SDS011;38298;50.346;3.526;2024-03-08T11:00:22;25.00;;;11.73;;
52368;SDS011;38298;50.346;3.526;2024-03-08T11:02:52;28.02;;;12.35;;
52368;SDS011;38298;50.346;3.526;2024-03-08T11:05:37;21.67;;;11.35;;
52368;SDS011;38298;50.346;3.526;2024-03-08T11:08:19;19.85;;;10.18;;
52368;SDS011;38298;50.346;3.526;2024-03-08T11:10:52;20.95;;;10.20;;
52368;SDS011;38298;50.346;3.526;2024-03-08T11:16:12;22.60;;;10.07;;
52368;SDS011;38298;50.346;3.526;2024-03-08T11:18:48;17.73;;;9.32;;
52368;SDS011;38298;50.346;3.526;2024-03-08T11:21:14;19.85;;;9.20;;
52368;SDS011;38298;50.346;3.526;2024-03-08T11:23:40;20.23;;;10.13;;
52368;SDS011;38298;50.346;3.526;2024-03-08T11:26:19;50.75;;;17.98;;
52368;SDS011;38298;50.346;3.526;2024-03-08T11:28:46;19.23;;;9.07;;
52368;SDS011;38298;50.346;3.526;2024-03-08T11:33:39;14.95;;;8.48;;
52368;SDS011;38298;50.346;3.526;2024-03-08T11:36:12;16.85;;;8.93;;
52368;SDS011;38298;50.346;3.526;2024-03-08T11:38:44;16.23;;;8.82;;
52368;SDS011;38298;50.346;3.526;2024-03-08T11:41:14;15.50;;;8.20;;
52368;SDS011;38298;50.346;3.526;2024-03-08T11:43:44;17.83;;;8.90;;
52368;SDS011;38298;50.346;3.526;2024-03-08T11:46:11;15.93;;;7.88;;
52368;SDS011;38298;50.346;3.526;2024-03-08T11:48:40;20.05;;;8.57;;
52368;SDS011;38298;50.346;3.526;2024-03-08T11:51:12;15.60;;;7.93;;
52368;SDS011;38298;50.346;3.526;2024-03-08T11:53:39;14.27;;;7.25;;
52368;SDS011;38298;50.346;3.526;2024-03-08T11:56:09;14.70;;;7.50;;
52368;SDS011;38298;50.346;3.526;2024-03-08T12:01:08;15.20;;;7.47;;
52368;SDS011;38298;50.346;3.526;2024-03-08T12:03:37;8.25;;;4.75;;
52368;SDS011;38298;50.346;3.526;2024-03-08T12:06:03;8.70;;;4.00;;
52368;SDS011;38298;50.346;3.526;2024-03-08T12:08:33;11.32;;;6.20;;
52368;SDS011;38298;50.346;3.526;2024-03-08T12:10:59;13.85;;;6.75;;
52368;SDS011;38298;50.346;3.526;2024-03-08T12:13:29;12.55;;;6.35;;
52368;SDS011;38298;50.346;3.526;2024-03-08T12:15:58;10.40;;;5.85;;
52368;SDS011;38298;50.346;3.526;2024-03-08T12:18:25;8.40;;;3.75;;
52368;SDS011;38298;50.346;3.526;2024-03-08T12:21:13;4.95;;;2.85;;
52368;SDS011;38298;50.346;3.526;2024-03-08T12:23:42;8.13;;;3.42;;
52368;SDS011;38298;50.346;3.526;2024-03-08T12:26:12;4.93;;;2.85;;
52368;SDS011;38298;50.346;3.526;2024-03-08T12:28:42;8.23;;;3.00;;
52368;SDS011;38298;50.346;3.526;2024-03-08T12:31:12;5.00;;;3.00;;
52368;SDS011;38298;50.346;3.526;2024-03-08T12:33:51;8.48;;;3.33;;
52368;SDS011;38298;50.346;3.526;2024-03-08T12:36:18;6.90;;;3.05;;
52368;SDS011;38298;50.346;3.526;2024-03-08T12:38:47;5.40;;;2.70;;
52368;SDS011;38298;50.346;3.526;2024-03-08T12:41:14;9.15;;;3.17;;
52368;SDS011;38298;50.346;3.526;2024-03-08T12:43:42;8.00;;;3.08;;
52368;SDS011;38298;50.346;3.526;2024-03-08T12:46:12;6.72;;;3.25;;
52368;SDS011;38298;50.346;3.526;2024-03-08T12:48:38;7.22;;;3.58;;
52368;SDS011;38298;50.346;3.526;2024-03-08T12:51:08;7.28;;;2.97;;
52368;SDS011;38298;50.346;3.526;2024-03-08T12:53:35;5.15;;;3.17;;
52368;SDS011;38298;50.346;3.526;2024-03-08T12:56:01;7.53;;;3.63;;
52368;SDS011;38298;50.346;3.526;2024-03-08T12:58:28;6.78;;;3.10;;
52368;SDS011;38298;50.346;3.526;2024-03-08T13:00:56;5.85;;;2.97;;
52368;SDS011;38298;50.346;3.526;2024-03-08T13:03:22;5.97;;;3.58;;
52368;SDS011;38298;50.346;3.526;2024-03-08T13:05:48;7.05;;;3.70;;
52368;SDS011;38298;50.346;3.526;2024-03-08T13:08:14;4.63;;;3.13;;
52368;SDS011;38298;50.346;3.526;2024-03-08T13:10:41;5.53;;;3.40;;
52368;SDS011;38298;50.346;3.526;2024-03-08T13:13:10;5.45;;;3.10;;
52368;SDS011;38298;50.346;3.526;2024-03-08T13:15:37;5.07;;;2.88;;
52368;SDS011;38298;50.346;3.526;2024-03-08T13:18:03;5.80;;;3.38;;
52368;SDS011;38298;50.346;3.526;2024-03-08T13:20:30;10.02;;;3.28;;
52368;SDS011;38298;50.346;3.526;2024-03-08T13:22:56;4.47;;;2.60;;
52368;SDS011;38298;50.346;3.526;2024-03-08T13:25:25;7.25;;;3.25;;
52368;SDS011;38298;50.346;3.526;2024-03-08T13:27:51;5.90;;;2.58;;
52368;SDS011;38298;50.346;3.526;2024-03-08T13:30:21;3.85;;;2.35;;
52368;SDS011;38298;50.346;3.526;2024-03-08T13:32:51;6.05;;;2.80;;
52368;SDS011;38298;50.346;3.526;2024-03-08T13:35:17;5.25;;;3.10;;
52368;SDS011;38298;50.346;3.526;2024-03-08T13:37:49;6.13;;;3.00;;
52368;SDS011;38298;50.346;3.526;2024-03-08T13:40:15;3.83;;;2.58;;
52368;SDS011;38298;50.346;3.526;2024-03-08T13:42:43;8.43;;;2.67;;
52368;SDS011;38298;50.346;3.526;2024-03-08T13:45:10;5.78;;;2.70;;
52368;SDS011;38298;50.346;3.526;2024-03-08T13:47:36;4.47;;;2.60;;
52368;SDS011;38298;50.346;3.526;2024-03-08T13:50:02;2.95;;;2.20;;
52368;SDS011;38298;50.346;3.526;2024-03-08T13:52:32;4.75;;;2.08;;
52368;SDS011;38298;50.346;3.526;2024-03-08T13:54:59;4.43;;;2.55;;
52368;SDS011;38298;50.346;3.526;2024-03-08T13:57:25;4.78;;;1.80;;
52368;SDS011;38298;50.346;3.526;2024-03-08T13:59:52;3.17;;;1.70;;
52368;SDS011;38298;50.346;3.526;2024-03-08T14:02:18;3.35;;;1.50;;
52368;SDS011;38298;50.346;3.526;2024-03-08T14:04:47;3.97;;;1.70;;
52368;SDS011;38298;50.346;3.526;2024-03-08T14:07:14;2.50;;;1.50;;
52368;SDS011;38298;50.346;3.526;2024-03-08T14:09:41;6.20;;;1.40;;
52368;SDS011;38298;50.346;3.526;2024-03-08T14:12:08;3.83;;;1.30;;
52368;SDS011;38298;50.346;3.526;2024-03-08T14:14:34;1.67;;;1.40;;
52368;SDS011;38298;50.346;3.526;2024-03-08T14:17:01;1.90;;;1.40;;
52368;SDS011;38298;50.346;3.526;2024-03-08T14:19:28;2.25;;;1.60;;
52368;SDS011;38298;50.346;3.526;2024-03-08T14:21:55;2.10;;;1.45;;
52368;SDS011;38298;50.346;3.526;2024-03-08T14:24:21;1.58;;;1.38;;
52368;SDS011;38298;50.346;3.526;2024-03-08T14:26:48;1.98;;;1.42;;
52368;SDS011;38298;50.346;3.526;2024-03-08T14:29:15;1.60;;;1.50;;
52368;SDS011;38298;50.346;3.526;2024-03-08T14:31:42;2.27;;;1.50;;
52368;SDS011;38298;50.346;3.526;2024-03-08T14:34:08;1.85;;;1.45;;
52368;SDS011;38298;50.346;3.526;2024-03-08T14:36:35;3.20;;;2.30;;
52368;SDS011;38298;50.346;3.526;2024-03-08T14:39:01;2.08;;;1.85;;
52368;SDS011;38298;50.346;3.526;2024-03-08T14:41:27;5.95;;;2.15;;